createdAt,value
2022-12-11T00:00:27.271Z,79.70
2022-12-11T00:02:54.004Z,80.20
2022-12-11T00:05:20.827Z,79.70
2022-12-11T00:07:48.925Z,80.50
2022-12-11T00:10:15.698Z,81.00
2022-12-11T00:12:42.399Z,81.20
2022-12-11T00:15:09.843Z,81.60
2022-12-11T00:17:38.277Z,81.50
2022-12-11T00:20:05.590Z,80.80
2022-12-11T00:22:32.294Z,80.60
2022-12-11T00:24:59.065Z,80.90
2022-12-11T00:27:25.787Z,80.60
2022-12-11T00:29:52.489Z,81.20
2022-12-11T00:32:19.172Z,81.30
2022-12-11T00:34:45.845Z,81.40
2022-12-11T00:37:12.592Z,81.50
2022-12-11T00:39:39.880Z,81.50
2022-12-11T00:42:07.841Z,81.70
2022-12-11T00:44:35.099Z,80.80
2022-12-11T00:47:01.944Z,80.90
2022-12-11T00:49:28.689Z,80.50
2022-12-11T00:51:55.381Z,80.70
2022-12-11T00:54:22.071Z,81.00
2022-12-11T00:56:48.739Z,80.70
2022-12-11T00:59:15.435Z,80.00
2022-12-11T01:01:42.526Z,80.40
2022-12-11T01:04:09.257Z,80.20
2022-12-11T01:06:35.928Z,80.40
2022-12-11T01:09:32.090Z,80.90
2022-12-11T01:11:58.804Z,80.10
2022-12-11T01:14:26.950Z,79.20
2022-12-11T01:16:53.723Z,79.30
2022-12-11T01:19:20.448Z,79.50
2022-12-11T01:21:47.127Z,79.90
2022-12-11T01:24:13.817Z,80.10
2022-12-11T01:26:40.502Z,80.90
2022-12-11T01:29:07.262Z,81.10
2022-12-11T01:31:34.049Z,80.40
2022-12-11T01:34:00.841Z,80.00
2022-12-11T01:36:27.531Z,79.40
2022-12-11T01:38:54.462Z,79.20
2022-12-11T01:41:21.658Z,80.50
2022-12-11T01:44:28.945Z,80.50
2022-12-11T01:46:55.637Z,79.80
2022-12-11T01:49:26.602Z,79.90
2022-12-11T01:51:57.694Z,79.50
2022-12-11T01:54:27.850Z,79.40
2022-12-11T01:56:58.615Z,79.30
2022-12-11T01:59:28.563Z,79.00
2022-12-11T02:01:59.302Z,79.00
2022-12-11T02:04:26.392Z,79.10
2022-12-11T02:06:53.648Z,79.20
2022-12-11T02:09:24.805Z,78.70
2022-12-11T02:12:19.120Z,78.30
2022-12-11T02:15:00.993Z,78.90
2022-12-11T02:17:50.565Z,79.10
2022-12-11T02:20:40.502Z,79.40
2022-12-11T02:23:13.329Z,79.90
2022-12-11T02:25:57.308Z,79.40
2022-12-11T02:28:33.275Z,80.30
2022-12-11T02:31:09.404Z,79.70
2022-12-11T02:34:04.399Z,80.10
2022-12-11T02:36:37.086Z,79.80
2022-12-11T02:39:07.095Z,79.80
2022-12-11T02:41:34.153Z,79.40
2022-12-11T02:44:03.364Z,79.70
2022-12-11T02:46:31.813Z,78.80
2022-12-11T02:48:58.905Z,78.30
2022-12-11T02:51:29.739Z,78.40
2022-12-11T02:53:59.252Z,77.90
2022-12-11T02:56:39.720Z,78.70
2022-12-11T02:59:11.182Z,79.00
2022-12-11T03:01:38.287Z,79.40
2022-12-11T03:04:05.472Z,79.50
2022-12-11T03:06:36.983Z,80.00
2022-12-11T03:09:05.435Z,80.20
2022-12-11T03:11:32.107Z,80.50
2022-12-11T03:14:02.725Z,80.20
2022-12-11T03:16:36.800Z,80.80
2022-12-11T03:19:15.113Z,80.60
2022-12-11T03:21:47.889Z,80.80
2022-12-11T03:24:22.082Z,80.00
2022-12-11T03:26:56.874Z,79.50
2022-12-11T03:29:29.879Z,80.40
2022-12-11T03:32:10.597Z,79.60
2022-12-11T03:34:53.479Z,79.40
2022-12-11T03:37:26.198Z,78.70
2022-12-11T03:39:59.154Z,78.90
2022-12-11T03:42:27.403Z,79.10
2022-12-11T03:44:56.850Z,79.00
2022-12-11T03:47:25.627Z,78.90
2022-12-11T03:49:53.691Z,79.70
2022-12-11T03:52:21.622Z,79.60
2022-12-11T03:54:50.794Z,79.10
2022-12-11T03:57:21.439Z,79.10
2022-12-11T03:59:49.487Z,79.10
2022-12-11T04:02:16.239Z,78.80
2022-12-11T04:04:43.137Z,78.80
2022-12-11T04:07:10.092Z,78.60
2022-12-11T04:09:37.004Z,78.40
2022-12-11T04:12:03.882Z,78.60
2022-12-11T04:14:49.144Z,78.30
2022-12-11T04:17:35.912Z,77.80
2022-12-11T04:20:22.045Z,78.60
2022-12-11T04:23:07.525Z,79.00
2022-12-11T04:25:34.247Z,78.60
2022-12-11T04:28:00.973Z,78.10
2022-12-11T04:30:33.782Z,79.50
2022-12-11T04:33:01.396Z,79.40
2022-12-11T04:35:28.553Z,79.20
2022-12-11T04:37:55.571Z,78.60
2022-12-11T04:40:22.913Z,80.30
2022-12-11T04:42:49.607Z,80.00
2022-12-11T04:45:16.573Z,79.00
2022-12-11T04:47:43.249Z,79.20
2022-12-11T04:50:12.006Z,78.70
2022-12-11T04:52:38.788Z,79.10
2022-12-11T04:55:07.640Z,78.70
2022-12-11T04:57:34.773Z,78.40
2022-12-11T05:00:02.113Z,78.30
2022-12-11T05:02:29.289Z,77.80
2022-12-11T05:04:56.015Z,77.40
2022-12-11T05:07:22.689Z,77.90
2022-12-11T05:09:49.421Z,77.90
2022-12-11T05:12:16.096Z,78.40
2022-12-11T05:14:42.784Z,78.00
2022-12-11T05:17:09.466Z,78.30
2022-12-11T05:19:36.183Z,78.50
2022-12-11T05:22:02.906Z,78.60
2022-12-11T05:24:29.610Z,78.40
2022-12-11T05:26:56.337Z,78.00
2022-12-11T05:29:23.046Z,78.10
2022-12-11T05:31:49.705Z,77.40
2022-12-11T05:34:16.412Z,78.30
2022-12-11T05:36:43.095Z,77.70
2022-12-11T05:39:11.918Z,77.60
2022-12-11T05:41:38.639Z,77.50
2022-12-11T05:44:05.704Z,77.30
2022-12-11T05:46:32.565Z,77.20
2022-12-11T05:49:01.395Z,76.80
2022-12-11T05:51:29.662Z,77.00
2022-12-11T05:53:58.081Z,77.20
2022-12-11T05:56:27.783Z,78.00
2022-12-11T05:58:55.887Z,77.70
2022-12-11T06:01:43.077Z,77.20
2022-12-11T06:04:11.520Z,77.10
2022-12-11T06:06:40.606Z,78.50
2022-12-11T06:09:07.657Z,78.80
2022-12-11T06:11:35.707Z,78.70
2022-12-11T06:14:03.582Z,78.90
2022-12-11T06:16:31.031Z,78.00
2022-12-11T06:18:58.645Z,78.20
2022-12-11T06:21:33.016Z,76.80
2022-12-11T06:24:02.174Z,77.20
2022-12-11T06:26:29.663Z,77.00
2022-12-11T06:28:56.463Z,76.60
2022-12-11T06:31:23.337Z,76.40
2022-12-11T06:33:50.122Z,76.20
2022-12-11T06:36:20.076Z,75.70
2022-12-11T06:38:47.852Z,75.50
2022-12-11T06:41:15.024Z,75.10
2022-12-11T06:43:43.339Z,74.80
2022-12-11T06:46:17.147Z,75.50
2022-12-11T06:48:44.818Z,74.50
2022-12-11T06:51:17.150Z,75.20
2022-12-11T06:53:44.199Z,75.20
2022-12-11T06:56:14.388Z,74.50
2022-12-11T06:58:42.398Z,74.80
2022-12-11T07:01:29.402Z,74.40
2022-12-11T07:03:58.781Z,74.30
2022-12-11T07:06:27.057Z,73.20
2022-12-11T07:08:54.466Z,73.00
2022-12-11T07:11:22.117Z,73.00
2022-12-11T07:13:49.356Z,72.40
2022-12-11T07:16:17.973Z,72.50
2022-12-11T07:18:49.040Z,71.90
2022-12-11T07:21:16.705Z,71.90
2022-12-11T07:23:43.690Z,72.70
2022-12-11T07:26:12.856Z,72.80
2022-12-11T07:28:39.848Z,72.90
2022-12-11T07:31:08.231Z,72.40
2022-12-11T07:33:35.421Z,72.00
2022-12-11T07:36:04.788Z,71.70
2022-12-11T07:38:31.818Z,71.70
2022-12-11T07:41:06.513Z,72.60
2022-12-11T07:43:35.186Z,72.00
2022-12-11T07:46:03.992Z,72.40
2022-12-11T07:48:30.923Z,72.30
2022-12-11T07:51:18.002Z,72.60
2022-12-11T07:53:46.638Z,72.50
2022-12-11T07:56:14.331Z,72.50
2022-12-11T07:58:41.347Z,72.70
2022-12-11T08:01:17.182Z,72.50
2022-12-11T08:03:44.679Z,71.50
2022-12-11T08:06:12.049Z,71.90
2022-12-11T08:08:40.983Z,71.80
2022-12-11T08:11:10.430Z,72.60
2022-12-11T08:13:37.516Z,72.60
2022-12-11T08:16:09.783Z,72.20
2022-12-11T08:18:37.366Z,71.20
2022-12-11T08:21:14.049Z,70.40
2022-12-11T08:23:41.003Z,70.40
2022-12-11T08:26:10.752Z,70.10
2022-12-11T08:28:37.446Z,70.30
2022-12-11T08:31:06.547Z,70.70
2022-12-11T08:33:33.666Z,70.30
2022-12-11T08:36:04.102Z,71.80
2022-12-11T08:38:32.425Z,73.20
2022-12-11T08:40:59.581Z,72.90
2022-12-11T08:43:26.284Z,72.40
2022-12-11T08:45:53.033Z,72.50
2022-12-11T08:48:19.794Z,71.70
2022-12-11T08:50:46.504Z,70.60
2022-12-11T08:53:13.197Z,70.50
2022-12-11T08:55:39.886Z,69.90
2022-12-11T08:58:06.585Z,68.90
2022-12-11T09:00:33.258Z,68.90
2022-12-11T09:02:59.940Z,68.90
2022-12-11T09:05:26.672Z,68.60
2022-12-11T09:07:53.456Z,67.90
2022-12-11T09:10:20.368Z,67.40
2022-12-11T09:12:47.091Z,67.30
2022-12-11T09:15:14.157Z,66.40
2022-12-11T09:17:40.931Z,66.70
2022-12-11T09:20:08.137Z,66.00
2022-12-11T09:22:34.850Z,65.70
2022-12-11T09:25:01.609Z,65.20
2022-12-11T09:27:29.170Z,65.10
2022-12-11T09:29:55.911Z,64.70
2022-12-11T09:32:22.596Z,65.10
2022-12-11T09:34:51.127Z,65.10
2022-12-11T09:37:18.031Z,64.90
2022-12-11T09:39:44.746Z,65.00
2022-12-11T09:42:20.140Z,64.30
2022-12-11T09:44:51.523Z,65.10
2022-12-11T09:47:37.706Z,64.50
2022-12-11T09:50:11.296Z,65.10
2022-12-11T09:53:04.398Z,64.40
2022-12-11T09:56:03.248Z,64.00
2022-12-11T09:59:07.349Z,63.60
2022-12-11T10:01:49.869Z,64.20
2022-12-11T10:04:37.968Z,63.80
2022-12-11T10:07:25.924Z,63.80
2022-12-11T10:10:22.174Z,63.80
2022-12-11T10:13:17.004Z,62.90
2022-12-11T10:15:53.012Z,64.10
2022-12-11T10:18:23.034Z,63.40
2022-12-11T10:20:54.466Z,63.10
2022-12-11T10:23:40.322Z,63.40
2022-12-11T10:26:21.617Z,62.20
2022-12-11T10:28:48.448Z,62.10
2022-12-11T10:31:41.065Z,61.60
2022-12-11T10:34:25.485Z,61.70
2022-12-11T10:37:00.161Z,61.70
2022-12-11T10:39:27.635Z,61.70
2022-12-11T10:41:55.936Z,62.20
2022-12-11T10:44:30.949Z,60.60
2022-12-11T10:47:15.528Z,61.30
2022-12-11T10:49:58.254Z,60.70
2022-12-11T10:52:28.328Z,60.30
2022-12-11T10:55:08.405Z,61.50
2022-12-11T10:57:37.683Z,60.80
2022-12-11T11:00:06.478Z,61.10
2022-12-11T11:02:33.271Z,60.70
2022-12-11T11:05:10.661Z,60.80
2022-12-11T11:07:37.644Z,60.30
2022-12-11T11:10:10.401Z,60.60
2022-12-11T11:12:46.445Z,61.10
2022-12-11T11:15:15.726Z,60.60
2022-12-11T11:17:55.089Z,62.40
2022-12-11T11:20:28.211Z,61.90
2022-12-11T11:23:12.311Z,62.00
2022-12-11T11:25:39.035Z,61.50
2022-12-11T11:28:08.311Z,59.90
2022-12-11T11:30:38.927Z,59.00
2022-12-11T11:33:20.720Z,61.00
2022-12-11T11:36:05.627Z,60.30
2022-12-11T11:38:50.442Z,61.00
2022-12-11T11:41:19.703Z,60.60
2022-12-11T11:43:59.813Z,60.90
2022-12-11T11:46:33.353Z,60.70
2022-12-11T11:49:22.833Z,60.60
2022-12-11T11:51:54.287Z,59.50
2022-12-11T11:54:39.044Z,59.40
2022-12-11T11:58:04.321Z,58.90
2022-12-11T12:00:33.971Z,56.70
2022-12-11T12:03:06.068Z,57.00
2022-12-11T12:05:39.371Z,54.70
2022-12-11T12:08:24.329Z,56.70
2022-12-11T12:11:01.529Z,56.20
2022-12-11T12:13:49.102Z,57.30
2022-12-11T12:19:39.846Z,59.30
2022-12-11T12:22:38.439Z,58.50
2022-12-11T12:25:29.943Z,58.70
2022-12-11T12:28:20.840Z,56.90
2022-12-11T12:31:29.453Z,56.60
2022-12-11T12:34:19.837Z,55.60
2022-12-11T12:37:00.244Z,52.90
2022-12-11T12:39:54.867Z,51.70
2022-12-11T12:42:33.710Z,49.60
2022-12-11T12:45:08.974Z,48.80
2022-12-11T12:47:36.676Z,49.80
2022-12-11T12:50:10.352Z,51.10
2022-12-11T12:52:40.685Z,53.30
2022-12-11T12:55:13.933Z,52.60
2022-12-11T12:57:45.313Z,53.00
2022-12-11T13:00:13.565Z,52.00
2022-12-11T13:02:50.790Z,52.00
2022-12-11T13:05:26.810Z,52.00
2022-12-11T13:07:57.270Z,49.00
2022-12-11T13:10:28.303Z,46.90
2022-12-11T13:12:55.204Z,44.90
2022-12-11T13:15:29.076Z,42.70
2022-12-11T13:17:56.470Z,40.80
2022-12-11T13:20:26.283Z,39.40
2022-12-11T13:23:15.801Z,37.90
2022-12-11T13:26:03.222Z,35.60
2022-12-11T13:28:38.936Z,36.00
2022-12-11T13:31:13.703Z,38.00
2022-12-11T13:33:50.764Z,40.70
2022-12-11T13:36:24.546Z,42.60
2022-12-11T13:38:59.990Z,42.60
2022-12-11T13:41:27.944Z,40.40
2022-12-11T13:43:55.306Z,39.20
2022-12-11T13:46:29.232Z,38.80
2022-12-11T13:49:01.058Z,37.90
2022-12-11T13:51:31.056Z,38.70
2022-12-11T13:54:03.562Z,40.20
2022-12-11T13:56:30.492Z,42.00
2022-12-11T13:58:57.195Z,44.80
2022-12-11T14:01:31.493Z,46.60
2022-12-11T14:04:02.926Z,48.60
2022-12-11T14:06:30.730Z,51.20
2022-12-11T14:09:00.716Z,53.20
2022-12-11T14:11:35.455Z,54.30
2022-12-11T14:14:05.196Z,55.00
2022-12-11T14:16:32.466Z,56.30
2022-12-11T14:19:05.815Z,57.90
2022-12-11T14:21:33.294Z,59.30
2022-12-11T14:24:03.960Z,59.70
2022-12-11T14:26:34.173Z,59.80
2022-12-11T14:29:02.703Z,60.50
2022-12-11T14:31:34.282Z,60.40
2022-12-11T14:34:12.296Z,59.90
2022-12-11T14:36:41.187Z,61.80
2022-12-11T14:39:14.132Z,62.10
2022-12-11T14:41:53.659Z,63.10
2022-12-11T14:44:22.600Z,62.90
2022-12-11T14:46:56.772Z,63.00
2022-12-11T14:49:32.169Z,63.90
2022-12-11T14:52:00.040Z,63.60
2022-12-11T14:54:53.064Z,63.70
2022-12-11T14:57:23.634Z,62.40
2022-12-11T14:59:53.075Z,61.90
2022-12-11T15:02:32.929Z,60.10
2022-12-11T15:05:06.151Z,58.40
2022-12-11T15:07:33.863Z,58.80
2022-12-11T15:10:00.568Z,58.80
2022-12-11T15:12:27.268Z,61.30
2022-12-11T15:15:00.768Z,63.40
2022-12-11T15:17:30.717Z,65.70
2022-12-11T15:20:06.641Z,66.60
2022-12-11T15:22:33.560Z,67.10
2022-12-11T15:25:00.985Z,67.30
2022-12-11T15:27:38.020Z,67.30
2022-12-11T15:30:21.760Z,67.30
2022-12-11T15:32:48.557Z,66.60
2022-12-11T15:35:26.880Z,66.30
2022-12-11T15:37:55.524Z,66.60
2022-12-11T15:40:22.721Z,67.20
2022-12-11T15:42:50.264Z,67.30
2022-12-11T15:45:22.741Z,67.70
2022-12-11T15:47:50.304Z,68.10
2022-12-11T15:50:22.501Z,68.10
2022-12-11T15:52:50.841Z,68.00
2022-12-11T15:55:18.857Z,68.20
2022-12-11T15:57:57.915Z,68.20
2022-12-11T16:00:25.057Z,68.80
2022-12-11T16:02:52.078Z,69.50
2022-12-11T16:05:19.201Z,69.70
2022-12-11T16:07:46.141Z,69.60
2022-12-11T16:10:17.981Z,69.20
2022-12-11T16:12:45.228Z,69.40
2022-12-11T16:15:17.496Z,69.70
2022-12-11T16:17:48.305Z,69.90
2022-12-11T16:20:15.272Z,70.30
2022-12-11T16:22:41.970Z,70.00
2022-12-11T16:25:08.922Z,71.00
2022-12-11T16:27:35.713Z,71.30
2022-12-11T16:30:02.431Z,71.00
2022-12-11T16:32:29.164Z,71.00
2022-12-11T16:35:00.640Z,71.00
2022-12-11T16:37:27.551Z,70.60
2022-12-11T16:39:54.267Z,70.50
2022-12-11T16:42:20.935Z,71.00
2022-12-11T16:44:48.105Z,71.20
2022-12-11T16:47:14.780Z,70.90
2022-12-11T16:49:43.066Z,70.30
2022-12-11T16:52:09.780Z,70.60
2022-12-11T16:54:36.521Z,69.90
2022-12-11T16:57:03.655Z,70.60
2022-12-11T16:59:36.620Z,71.50
2022-12-11T17:02:04.169Z,71.50
2022-12-11T17:04:30.867Z,71.80
2022-12-11T17:06:57.566Z,71.50
2022-12-11T17:09:24.250Z,71.50
2022-12-11T17:11:53.564Z,72.70
2022-12-11T17:14:20.388Z,71.30
2022-12-11T17:16:48.052Z,72.40
2022-12-11T17:19:15.681Z,73.30
2022-12-11T17:21:45.891Z,72.70
2022-12-11T17:24:17.846Z,72.90
2022-12-11T17:26:44.666Z,73.20
2022-12-11T17:29:12.156Z,73.50
2022-12-11T17:31:38.999Z,73.50
2022-12-11T17:34:06.384Z,73.40
2022-12-11T17:36:33.291Z,72.40
2022-12-11T17:38:59.988Z,72.60
2022-12-11T17:41:26.824Z,73.00
2022-12-11T17:43:55.575Z,72.80
2022-12-11T17:46:22.589Z,72.50
2022-12-11T17:48:49.858Z,71.80
2022-12-11T17:51:23.720Z,71.70
2022-12-11T17:53:52.782Z,71.70
2022-12-11T17:56:19.877Z,72.80
2022-12-11T17:58:46.657Z,72.80
2022-12-11T18:01:13.412Z,73.30
2022-12-11T18:03:41.090Z,73.10
2022-12-11T18:06:11.634Z,73.30
2022-12-11T18:08:38.970Z,72.60
2022-12-11T18:11:08.396Z,72.40
2022-12-11T18:13:35.346Z,72.50
2022-12-11T18:16:10.355Z,72.50
2022-12-11T18:18:37.690Z,73.00
2022-12-11T18:21:04.937Z,73.50
2022-12-11T18:23:31.814Z,72.50
2022-12-11T18:25:58.556Z,72.10
2022-12-11T18:28:25.300Z,72.10
2022-12-11T18:30:53.383Z,72.00
2022-12-11T18:33:21.928Z,72.00
2022-12-11T18:35:50.259Z,72.70
2022-12-11T18:38:17.041Z,71.90
2022-12-11T18:40:43.759Z,72.40
2022-12-11T18:43:10.614Z,72.60
2022-12-11T18:45:41.728Z,71.60
2022-12-11T18:48:08.758Z,71.00
2022-12-11T18:50:35.995Z,72.20
2022-12-11T18:53:03.185Z,71.00
2022-12-11T18:55:30.281Z,70.70
2022-12-11T18:57:56.981Z,71.20
2022-12-11T19:00:23.897Z,71.70
2022-12-11T19:02:52.525Z,71.00
2022-12-11T19:05:19.506Z,70.90
2022-12-11T19:07:46.273Z,70.40
2022-12-11T19:10:13.152Z,71.50
2022-12-11T19:12:40.367Z,71.50
2022-12-11T19:15:07.577Z,70.60
2022-12-11T19:17:34.257Z,70.10
2022-12-11T19:20:18.837Z,70.60
2022-12-11T19:22:47.721Z,70.70
2022-12-11T19:25:14.583Z,70.80
2022-12-11T19:27:41.402Z,71.30
2022-12-11T19:30:10.496Z,71.30
2022-12-11T19:32:37.191Z,70.60
2022-12-11T19:35:04.194Z,70.80
2022-12-11T19:37:30.928Z,71.10
2022-12-11T19:39:57.702Z,69.80
2022-12-11T19:42:24.436Z,70.80
2022-12-11T19:44:51.229Z,70.90
2022-12-11T19:47:17.977Z,70.90
2022-12-11T19:49:45.833Z,70.10
2022-12-11T19:52:12.508Z,70.20
2022-12-11T19:54:39.195Z,69.80
2022-12-11T19:57:05.890Z,71.60
2022-12-11T19:59:32.573Z,72.00
2022-12-11T20:01:59.287Z,71.70
2022-12-11T20:04:26.081Z,73.20
2022-12-11T20:06:52.771Z,73.30
2022-12-11T20:09:19.549Z,70.90
2022-12-11T20:11:47.740Z,70.10
2022-12-11T20:14:23.913Z,71.30
2022-12-11T20:17:10.915Z,71.90
2022-12-11T20:19:38.116Z,72.10
2022-12-11T20:22:05.434Z,70.30
2022-12-11T20:24:32.222Z,70.60
2022-12-11T20:26:58.909Z,70.80
2022-12-11T20:29:25.634Z,71.60
2022-12-11T20:31:52.538Z,71.10
2022-12-11T20:34:20.021Z,72.30
2022-12-11T20:36:52.379Z,71.80
2022-12-11T20:39:19.580Z,71.50
2022-12-11T20:41:46.255Z,72.10
2022-12-11T20:44:12.974Z,71.60
2022-12-11T20:46:39.765Z,72.10
2022-12-11T20:49:12.571Z,72.60
2022-12-11T20:51:39.801Z,72.90
2022-12-11T20:54:06.599Z,73.00
2022-12-11T20:56:33.411Z,72.70
2022-12-11T20:59:00.712Z,72.30
2022-12-11T21:01:30.188Z,72.20
2022-12-11T21:03:57.518Z,71.40
2022-12-11T21:06:35.564Z,72.00
2022-12-11T21:09:06.970Z,71.60
2022-12-11T21:11:33.932Z,71.90
2022-12-11T21:14:00.659Z,72.80
2022-12-11T21:16:27.667Z,73.20
2022-12-11T21:18:55.987Z,73.30
2022-12-11T21:21:23.015Z,74.20
2022-12-11T21:23:49.811Z,73.30
2022-12-11T21:26:17.089Z,73.30
2022-12-11T21:28:43.970Z,74.10
2022-12-11T21:31:14.651Z,74.40
2022-12-11T21:33:41.797Z,75.20
2022-12-11T21:36:11.014Z,75.90
2022-12-11T21:38:38.177Z,74.80
2022-12-11T21:41:14.144Z,73.80
2022-12-11T21:44:14.249Z,73.00
2022-12-11T21:46:29.301Z,71.10
2022-12-11T21:48:56.279Z,71.60
2022-12-11T21:51:22.937Z,73.10
2022-12-11T21:53:51.760Z,73.90
2022-12-11T21:56:21.945Z,73.20
2022-12-11T21:58:50.861Z,73.00
2022-12-11T22:01:24.458Z,73.30
2022-12-11T22:03:52.726Z,71.50
2022-12-11T22:06:20.046Z,70.90
2022-12-11T22:08:49.003Z,72.20
2022-12-11T22:11:19.266Z,72.30
2022-12-11T22:13:46.047Z,73.00
2022-12-11T22:16:12.840Z,72.00
2022-12-11T22:18:39.657Z,72.70
2022-12-11T22:21:06.473Z,72.40
2022-12-11T22:23:33.401Z,72.70
2022-12-11T22:26:00.210Z,73.70
2022-12-11T22:28:26.920Z,74.30
2022-12-11T22:30:53.655Z,74.90
2022-12-11T22:33:20.512Z,74.00
2022-12-11T22:35:47.448Z,74.10
2022-12-11T22:38:14.209Z,72.90
2022-12-11T22:40:41.627Z,72.10
2022-12-11T22:43:08.337Z,72.00
2022-12-11T22:45:39.002Z,72.50
2022-12-11T22:48:07.206Z,72.20
2022-12-11T22:50:35.404Z,72.20
2022-12-11T22:53:02.392Z,72.70
2022-12-11T22:55:29.603Z,71.70
2022-12-11T22:57:56.608Z,71.80
2022-12-11T23:00:23.978Z,71.00
2022-12-11T23:02:50.882Z,71.30
2022-12-11T23:05:17.788Z,71.50
2022-12-11T23:07:44.557Z,70.10
2022-12-11T23:10:11.611Z,69.40
2022-12-11T23:12:38.335Z,68.30
2022-12-11T23:15:06.688Z,68.50
2022-12-11T23:17:33.388Z,68.20
2022-12-11T23:20:03.554Z,68.50
2022-12-11T23:22:30.516Z,69.30
2022-12-11T23:24:57.436Z,69.20
2022-12-11T23:27:24.212Z,68.90
2022-12-11T23:29:50.913Z,68.70
2022-12-11T23:32:17.640Z,68.90
2022-12-11T23:34:44.334Z,70.50
2022-12-11T23:37:11.016Z,72.40
2022-12-11T23:39:37.745Z,71.10
2022-12-11T23:42:04.558Z,71.10
2022-12-11T23:44:31.244Z,70.70
2022-12-11T23:46:57.924Z,71.70
2022-12-11T23:49:24.626Z,71.30
2022-12-11T23:51:51.311Z,69.90
2022-12-11T23:54:18.058Z,68.10
2022-12-11T23:56:44.749Z,67.30
2022-12-11T23:59:15.325Z,67.60
